Hollinger, Nebraska
Current Conditions -  °F | °C
As of 3:55 PM on Friday 28 Nov 2014 (Local Time) from KHDE Reporting Station
Clear Clear  
Wind Chill: 74°   Ceiling: Unl
Heat Index: 74°   Visibility: 10mi
Dew Point: 16°   Wind: 15mph
Humidity: 11%   Direction: 290°WNW
Pressure: 29.69"   Gusts: 23mph
Location:  40.2849°N, 99.6171°W
Report Text: KHDE 282155Z AUTO 29013G20KT 10SM CLR 23/M09 A2969 RMK AO2 T02341091
Loading
Personal Weather Stations






























Interactive Weather Map New forecast layout! Learn more

10-Day Weather Forecast

Advertisements
Track Severe Weather on mobile